»·PEaware :: N1885W KPSP-KSBA

N1885W :: KPSP-KSBA

FLIGHT INFORMATION

Flight Status: Arrived
Operator: Privately registered:
United States
More flights under this callsign
Pilot: Danny W. (23158)
Aircraft: BEECH AIRCRAFT BONANZA
(BE35)
More flights by this aircraft type
Origin: KPSP Palm Springs Intl
United States
Destination: KSBA Santa Barbara Mun
United States
More flights between these airports :: More routes between these airports
Route: +CATH1 PSP V388 PDZ V186 DEANO V27 KWANG
File this flight plan on PilotEdge
Remarks:
Altitude:
(Current/Filed)
12,000ft
Speed:
(Current/Filed)
155kts
Departed: 03-Feb-19 12:49 PM
Arrived: 03-Feb-19 02:34 PM
Distance/Time
Traveled:
170nm/1:45
Distance/Time
To Go:
Arrived

Flight Plot

Page will automatically refresh every two minutes.


Map Options




Map Legend


Flown Route
Filed Route
Departure Airport
Arrival Airport
Navaid (VOR, NDB)
Fix

Horizontal Profiles

Position Reports

Time Latitude Longitude Heading Altitude Ground
Speed
03-Feb-19 12:23 33.823423 -116.497660 52 480ft 0kts
03-Feb-19 12:24 33.823423 -116.497660 52 480ft 0kts
03-Feb-19 12:25 33.823423 -116.497660 52 480ft 0kts
03-Feb-19 12:26 33.823423 -116.497660 52 480ft 0kts
03-Feb-19 12:27 33.823423 -116.497660 52 480ft 0kts
03-Feb-19 12:28 33.823423 -116.497660 52 480ft 0kts
03-Feb-19 12:29 33.823423 -116.497660 52 480ft 0kts
03-Feb-19 12:30 33.823424 -116.497659 52 480ft 0kts
03-Feb-19 12:31 33.823425 -116.497656 52 480ft 0kts
03-Feb-19 12:32 33.823427 -116.497653 52 480ft 0kts
03-Feb-19 12:33 33.823429 -116.497650 52 480ft 0kts
03-Feb-19 12:34 33.823431 -116.497647 52 480ft 0kts
03-Feb-19 12:35 33.823432 -116.497645 52 480ft 0kts
03-Feb-19 12:36 33.823434 -116.497643 52 480ft 0kts
03-Feb-19 12:37 33.823435 -116.497640 52 480ft 0kts
03-Feb-19 12:38 33.823437 -116.497638 52 480ft 0kts
03-Feb-19 12:39 33.823438 -116.497636 52 480ft 0kts
03-Feb-19 12:40 33.823439 -116.497634 52 480ft 0kts
03-Feb-19 12:41 33.823440 -116.497632 52 480ft 0kts
03-Feb-19 12:42 33.823442 -116.497630 52 480ft 0kts
03-Feb-19 12:43 33.823443 -116.497629 52 480ft 0kts
03-Feb-19 12:44 33.823444 -116.497627 52 480ft 0kts
03-Feb-19 12:45 33.823657 -116.497645 333 480ft 5kts
03-Feb-19 12:46 33.824692 -116.499479 236 480ft 6kts
03-Feb-19 12:47 33.824600 -116.499633 230 480ft 0kts
03-Feb-19 12:48 33.833742 -116.508511 322 684ft 102kts
03-Feb-19 12:49 33.862103 -116.523556 318 1861ft 131kts
03-Feb-19 12:50 33.891709 -116.550551 321 3149ft 131kts
03-Feb-19 12:51 33.911780 -116.531076 135 4605ft 121kts
03-Feb-19 12:52 33.893905 -116.494873 120 5932ft 130kts
03-Feb-19 12:53 33.879146 -116.454462 118 7082ft 133kts
03-Feb-19 12:54 33.863628 -116.413566 123 8092ft 135kts
03-Feb-19 12:55 33.845970 -116.372828 122 9033ft 138kts
03-Feb-19 12:56 33.828065 -116.330901 123 9829ft 144kts
03-Feb-19 12:57 33.809589 -116.287563 123 10512ft 147kts
03-Feb-19 12:58 33.789164 -116.245587 161 11214ft 129kts
03-Feb-19 12:59 33.770731 -116.262544 280 11803ft 99kts
03-Feb-19 13:00 33.788250 -116.293793 298 11988ft 126kts
03-Feb-19 13:02 33.806430 -116.323901 298 11982ft 141kts
03-Feb-19 13:03 33.830077 -116.363248 298 11994ft 147kts
03-Feb-19 13:04 33.854202 -116.403495 298 11988ft 150kts
03-Feb-19 13:05 33.874519 -116.446907 283 11977ft 146kts
03-Feb-19 13:06 33.886227 -116.493486 282 11974ft 144kts
03-Feb-19 13:07 33.897947 -116.539688 282 11988ft 144kts
03-Feb-19 13:08 33.909658 -116.585853 282 11985ft 145kts
03-Feb-19 13:09 33.921589 -116.632941 282 11988ft 147kts
03-Feb-19 13:10 33.933576 -116.680315 282 11970ft 146kts
03-Feb-19 13:11 33.945343 -116.726915 282 11971ft 144kts
03-Feb-19 13:12 33.947620 -116.774147 265 11974ft 142kts
03-Feb-19 13:13 33.945966 -116.819856 265 11971ft 142kts
03-Feb-19 13:14 33.944350 -116.867014 265 11978ft 142kts
03-Feb-19 13:15 33.942724 -116.914333 265 11978ft 140kts
03-Feb-19 13:16 33.941083 -116.961234 265 11984ft 142kts
03-Feb-19 13:16 33.939653 -117.001797 265 11781ft 147kts
03-Feb-19 13:18 33.937599 -117.059600 265 11369ft 148kts
03-Feb-19 13:19 33.935851 -117.107965 265 11082ft 149kts
03-Feb-19 13:20 33.933977 -117.159569 265 10107ft 155kts
03-Feb-19 13:20 33.932421 -117.198076 264 10031ft 136kts
03-Feb-19 13:21 33.930228 -117.245813 264 9999ft 150kts
03-Feb-19 13:23 33.927646 -117.305416 264 9996ft 153kts
03-Feb-19 13:24 33.926283 -117.336624 264 10000ft 153kts
03-Feb-19 13:24 33.924453 -117.379477 264 10004ft 153kts
03-Feb-19 13:25 33.922408 -117.430844 264 10004ft 153kts
03-Feb-19 13:26 33.920298 -117.482256 264 10009ft 153kts
03-Feb-19 13:27 33.919660 -117.533690 283 10005ft 157kts
03-Feb-19 13:28 33.936854 -117.582171 287 10020ft 157kts
03-Feb-19 13:29 33.953927 -117.630886 287 10021ft 158kts
03-Feb-19 13:30 33.971117 -117.679691 287 10020ft 158kts
03-Feb-19 13:31 33.988274 -117.728437 287 10021ft 158kts
03-Feb-19 13:32 34.000622 -117.763578 287 10017ft 158kts
03-Feb-19 13:33 34.012985 -117.803239 284 10021ft 156kts
03-Feb-19 13:34 34.027837 -117.851865 284 10024ft 156kts
03-Feb-19 13:35 34.043081 -117.901286 284 10026ft 156kts
03-Feb-19 13:36 34.058172 -117.950259 285 10015ft 157kts
03-Feb-19 13:37 34.073362 -117.999608 284 10009ft 157kts
03-Feb-19 13:38 34.088450 -118.048716 284 10004ft 157kts
03-Feb-19 13:39 34.103616 -118.098148 284 9999ft 157kts
03-Feb-19 13:40 34.118802 -118.147737 284 10001ft 156kts
03-Feb-19 13:41 34.132868 -118.193731 284 10011ft 156kts
03-Feb-19 13:42 34.147114 -118.240450 284 10003ft 157kts
03-Feb-19 13:43 34.159928 -118.282532 284 10005ft 157kts
03-Feb-19 13:44 34.171988 -118.322172 285 9994ft 158kts
03-Feb-19 13:45 34.187144 -118.372023 284 9999ft 157kts
03-Feb-19 13:46 34.202254 -118.421829 284 10011ft 157kts
03-Feb-19 13:47 34.217342 -118.471664 284 9993ft 158kts
03-Feb-19 13:48 34.233239 -118.521295 287 9994ft 158kts
03-Feb-19 13:49 34.250380 -118.570352 287 10001ft 158kts
03-Feb-19 13:50 34.267304 -118.619552 287 9991ft 158kts
03-Feb-19 13:51 34.284258 -118.669069 287 9978ft 159kts
03-Feb-19 13:52 34.293820 -118.697025 287 9975ft 159kts
03-Feb-19 13:53 34.310728 -118.746515 287 9985ft 159kts
03-Feb-19 13:54 34.327601 -118.795995 287 9988ft 159kts
03-Feb-19 13:55 34.344530 -118.845695 287 9978ft 159kts
03-Feb-19 13:56 34.355888 -118.896234 264 9983ft 154kts
03-Feb-19 13:57 34.351983 -118.948087 262 9983ft 155kts
03-Feb-19 13:58 34.348007 -119.000149 262 9992ft 155kts
03-Feb-19 13:59 34.344593 -119.046285 262 9982ft 156kts
03-Feb-19 14:00 34.340529 -119.100865 262 9557ft 170kts
03-Feb-19 14:01 34.336441 -119.156523 262 8663ft 159kts
03-Feb-19 14:02 34.332470 -119.209606 262 7628ft 157kts
03-Feb-19 14:03 34.328539 -119.261465 262 6664ft 153kts
03-Feb-19 14:04 34.325447 -119.301840 262 5926ft 151kts
03-Feb-19 14:05 34.321626 -119.352081 262 4983ft 146kts
03-Feb-19 14:06 34.317926 -119.400340 262 4065ft 137kts
03-Feb-19 14:07 34.314147 -119.448651 262 4001ft 151kts
03-Feb-19 14:08 34.310226 -119.499641 262 4001ft 152kts
03-Feb-19 14:09 34.321648 -119.547841 287 4000ft 152kts
03-Feb-19 14:10 34.337066 -119.585828 290 4000ft 149kts
03-Feb-19 14:11 34.354570 -119.631517 290 4001ft 149kts
03-Feb-19 14:12 34.372101 -119.676755 290 4005ft 148kts
03-Feb-19 14:13 34.389653 -119.722281 289 4007ft 148kts
03-Feb-19 14:14 34.403903 -119.760406 290 4006ft 152kts
03-Feb-19 14:15 34.420864 -119.796967 298 2166ft 156kts
03-Feb-19 14:16 34.427762 -119.842836 263 22ft 88kts
03-Feb-19 14:17 34.427762 -119.872308 272 735ft 121kts
03-Feb-19 14:18 34.404512 -119.902717 217 1900ft 138kts
03-Feb-19 14:19 34.364352 -119.918963 198 2288ft 148kts
03-Feb-19 14:20 34.325118 -119.926729 153 2896ft 153kts
03-Feb-19 14:21 34.317796 -119.873387 93 2995ft 183kts
03-Feb-19 14:22 34.317807 -119.833538 92 2992ft 164kts
03-Feb-19 14:23 34.318207 -119.775758 92 3005ft 176kts
03-Feb-19 14:24 34.318534 -119.716557 92 3002ft 175kts
03-Feb-19 14:25 34.319137 -119.657842 85 2997ft 172kts
03-Feb-19 14:26 34.351817 -119.653558 323 2624ft 157kts
03-Feb-19 14:27 34.372347 -119.682943 285 1872ft 120kts
03-Feb-19 14:28 34.388807 -119.720458 292 1918ft 136kts
03-Feb-19 14:29 34.401909 -119.750188 293 1564ft 112kts
03-Feb-19 14:30 34.412365 -119.777747 290 1258ft 103kts
03-Feb-19 14:31 34.424676 -119.806978 291 728ft 87kts
03-Feb-19 14:32 34.427956 -119.833361 267 45ft 65kts
03-Feb-19 14:33 34.428275 -119.841841 342 13ft 0kts
03-Feb-19 14:34 34.429257 -119.843587 285 13ft 5kts
03-Feb-19 14:35 34.429460 -119.843799 334 13ft 0kts
03-Feb-19 14:36 34.429462 -119.843801 334 13ft 0kts
03-Feb-19 14:37 34.429465 -119.843802 334 13ft 0kts
03-Feb-19 14:38 34.429465 -119.843802 334 13ft 0kts
03-Feb-19 14:39 34.429465 -119.843802 334 13ft 0kts
03-Feb-19 14:40 34.429465 -119.843802 334 13ft 0kts
03-Feb-19 14:41 34.429465 -119.843802 334 13ft 0kts
03-Feb-19 14:42 34.429465 -119.843802 334 13ft 0kts
03-Feb-19 14:43 34.429465 -119.843802 334 13ft 0kts
03-Feb-19 14:44 34.429465 -119.843802 334 13ft 0kts
03-Feb-19 14:45 34.429465 -119.843802 334 13ft 0kts
03-Feb-19 14:46 34.429465 -119.843802 334 13ft 0kts
03-Feb-19 14:47 34.429465 -119.843802 334 13ft 0kts

Navigation Log

Ident Type
Flight plan parsing failed, navigation log unavailable